createdAt,value
2018-05-23T00:02:11.335Z,101936.86
2018-05-23T00:04:39.733Z,101928.41
2018-05-23T00:07:07.802Z,101935.08
2018-05-23T00:09:36.122Z,101927.98
2018-05-23T00:12:04.296Z,101924.97
2018-05-23T00:14:32.886Z,101929.05
2018-05-23T00:17:00.668Z,101931.31
2018-05-23T00:19:28.479Z,101935.81
2018-05-23T00:21:57.204Z,101937.12
2018-05-23T00:24:25.047Z,101938.95
2018-05-23T00:26:52.923Z,101939.94
2018-05-23T00:29:21.268Z,101962.08
2018-05-23T00:31:49.991Z,101955.52
2018-05-23T00:34:17.863Z,101953.33
2018-05-23T00:36:46.290Z,101977.75
2018-05-23T00:39:14.268Z,101983.66
2018-05-23T00:41:42.087Z,101969.55
2018-05-23T00:44:10.317Z,101981.04
2018-05-23T00:46:38.081Z,101990.79
2018-05-23T00:49:05.879Z,101989.47
2018-05-23T00:51:33.973Z,101981.53
2018-05-23T00:54:01.813Z,101990.45
2018-05-23T00:56:29.782Z,101995.86
2018-05-23T00:58:58.160Z,101999.44
2018-05-23T01:01:26.340Z,101993.31
2018-05-23T01:03:54.274Z,101996.90
2018-05-23T01:06:22.577Z,102000.89
2018-05-23T01:08:50.606Z,101993.86
2018-05-23T01:11:18.720Z,101995.59
2018-05-23T01:13:47.048Z,102001.34
2018-05-23T01:16:15.374Z,102002.23
2018-05-23T01:18:43.345Z,102008.45
2018-05-23T01:21:11.743Z,102008.00
2018-05-23T01:23:40.001Z,102008.42
2018-05-23T01:26:07.848Z,102004.48
2018-05-23T01:28:35.840Z,102015.07
2018-05-23T01:31:04.008Z,102021.69
2018-05-23T01:33:32.046Z,102023.91
2018-05-23T01:36:00.254Z,102020.80
2018-05-23T01:38:28.427Z,102020.28
2018-05-23T01:40:56.297Z,102016.77
2018-05-23T01:43:24.365Z,102017.14
2018-05-23T01:45:52.738Z,102014.01
2018-05-23T01:48:20.792Z,101970.80
2018-05-23T01:50:49.290Z,102017.98
2018-05-23T01:53:17.263Z,102018.44
2018-05-23T01:55:45.183Z,102030.94
2018-05-23T01:58:13.302Z,102027.39
2018-05-23T02:00:41.375Z,102035.82
2018-05-23T02:03:09.240Z,102035.82
2018-05-23T02:05:37.310Z,102043.34
2018-05-23T02:08:05.386Z,102042.02
2018-05-23T02:10:33.143Z,102045.97
2018-05-23T02:13:01.387Z,102054.38
2018-05-23T02:15:29.729Z,102049.95
2018-05-23T02:17:57.874Z,102056.17
2018-05-23T02:20:25.960Z,102056.18
2018-05-23T02:22:53.975Z,102049.95
2018-05-23T02:25:21.981Z,102053.08
2018-05-23T02:27:50.154Z,102044.66
2018-05-23T02:30:18.244Z,102053.09
2018-05-23T02:32:46.094Z,102057.48
2018-05-23T02:35:14.129Z,102053.05
2018-05-23T02:37:42.161Z,102053.95
2018-05-23T02:40:09.887Z,102039.78
2018-05-23T02:42:38.178Z,102052.62
2018-05-23T02:45:06.319Z,102058.81
2018-05-23T02:47:34.108Z,102065.45
2018-05-23T02:50:02.287Z,102065.47
2018-05-23T02:52:30.489Z,102069.44
2018-05-23T02:54:58.327Z,102067.68
2018-05-23T02:57:26.495Z,102076.53
2018-05-23T02:59:54.800Z,102079.19
2018-05-23T03:02:22.640Z,102086.69
2018-05-23T03:04:50.938Z,102086.71
2018-05-23T03:07:18.983Z,102094.20
2018-05-23T03:09:46.755Z,102089.79
2018-05-23T03:12:14.999Z,102089.34
2018-05-23T03:14:43.367Z,102100.41
2018-05-23T03:17:11.239Z,102095.09
2018-05-23T03:19:39.558Z,102090.23
2018-05-23T03:22:07.642Z,102100.84
2018-05-23T03:24:35.585Z,102097.30
2018-05-23T03:27:03.971Z,102101.28
2018-05-23T03:29:31.917Z,102107.48
2018-05-23T03:31:59.719Z,102107.05
2018-05-23T03:34:28.593Z,102103.95
2018-05-23T03:36:56.557Z,102109.67
2018-05-23T03:39:24.422Z,102116.30
2018-05-23T03:41:52.728Z,102114.09
2018-05-23T03:44:20.874Z,102116.73
2018-05-23T03:46:48.753Z,102115.86
2018-05-23T03:49:16.913Z,102114.08
2018-05-23T03:51:45.169Z,102118.48
2018-05-23T03:54:13.056Z,102120.70
2018-05-23T03:56:41.233Z,102122.03
2018-05-23T03:59:09.404Z,102128.22
2018-05-23T04:01:49.454Z,102116.74
2018-05-23T04:04:29.100Z,102128.23
2018-05-23T04:10:01.060Z,102129.98
2018-05-23T04:12:29.732Z,102137.94
2018-05-23T04:14:58.042Z,102145.46
2018-05-23T04:17:25.922Z,102151.20
2018-05-23T04:19:54.298Z,102146.31
2018-05-23T04:22:22.765Z,102150.31
2018-05-23T04:24:50.759Z,102151.61
2018-05-23T04:27:18.911Z,102145.42
2018-05-23T04:29:46.943Z,102151.64
2018-05-23T04:32:14.866Z,102155.17
2018-05-23T04:34:42.918Z,102155.61
2018-05-23T04:37:11.406Z,102160.01
2018-05-23T04:39:39.278Z,102167.95
2018-05-23T04:42:07.336Z,102172.80
2018-05-23T04:44:35.639Z,102160.42
2018-05-23T04:47:03.989Z,102161.75
2018-05-23T04:49:32.680Z,102180.25
2018-05-23T04:52:00.444Z,102182.03
2018-05-23T04:54:28.460Z,102182.91
2018-05-23T04:56:56.606Z,102180.67
2018-05-23T04:59:24.456Z,102190.41
2018-05-23T05:01:52.829Z,102187.73
2018-05-23T05:04:21.111Z,102185.97
2018-05-23T05:06:48.973Z,102175.78
2018-05-23T05:09:17.099Z,102189.02
2018-05-23T05:11:46.417Z,102186.33
2018-05-23T05:14:14.410Z,102186.78
2018-05-23T05:16:43.124Z,102195.15
2018-05-23T05:19:11.372Z,102192.05
2018-05-23T05:21:39.345Z,102189.37
2018-05-23T05:24:07.517Z,102196.40
2018-05-23T05:26:35.802Z,102195.09
2018-05-23T05:29:03.767Z,102199.06
2018-05-23T05:31:32.104Z,102192.41
2018-05-23T05:34:00.522Z,102208.71
2018-05-23T05:36:28.895Z,102207.31
2018-05-23T05:38:57.230Z,102213.03
2018-05-23T05:41:25.339Z,102223.61
2018-05-23T05:43:53.178Z,102216.47
2018-05-23T05:46:21.346Z,102219.04
2018-05-23T05:48:49.890Z,102223.37
2018-05-23T05:51:17.704Z,102225.95
2018-05-23T05:53:45.617Z,102225.87
2018-05-23T05:56:14.214Z,102222.73
2018-05-23T05:58:42.413Z,102224.41
2018-05-23T06:01:11.348Z,102220.81
2018-05-23T06:03:39.850Z,102222.09
2018-05-23T06:06:07.744Z,102222.87
2018-05-23T06:08:35.588Z,102225.48
2018-05-23T06:11:04.874Z,102223.60
2018-05-23T06:13:32.697Z,102232.39
2018-05-23T06:16:00.711Z,102237.16
2018-05-23T06:18:29.212Z,102242.82
2018-05-23T06:20:57.256Z,102240.45
2018-05-23T06:23:25.116Z,102241.28
2018-05-23T06:25:53.596Z,102253.27
2018-05-23T06:28:21.715Z,102254.09
2018-05-23T06:30:49.635Z,102253.65
2018-05-23T06:33:17.908Z,102251.84
2018-05-23T06:35:46.003Z,102250.95
2018-05-23T06:38:14.263Z,102257.38
2018-05-23T06:40:42.434Z,102260.39
2018-05-23T06:43:10.298Z,102259.91
2018-05-23T06:45:38.639Z,102266.47
2018-05-23T06:48:06.851Z,102263.33
2018-05-23T06:50:34.729Z,102273.86
2018-05-23T06:53:02.792Z,102273.74
2018-05-23T06:55:30.963Z,102279.85
2018-05-23T06:57:58.881Z,102276.63
2018-05-23T07:00:27.749Z,102281.03
2018-05-23T07:02:55.795Z,102282.77
2018-05-23T07:05:23.582Z,102289.41
2018-05-23T07:07:51.628Z,102286.73
2018-05-23T07:10:19.696Z,102290.58
2018-05-23T07:12:47.568Z,102297.09
2018-05-23T07:15:15.843Z,102290.25
2018-05-23T07:17:44.114Z,102300.36
2018-05-23T07:20:12.398Z,102311.84
2018-05-23T07:22:40.674Z,102312.56
2018-05-23T07:25:08.975Z,102310.56
2018-05-23T07:27:37.016Z,102310.91
2018-05-23T07:30:04.876Z,102309.09
2018-05-23T07:32:33.106Z,102321.46
2018-05-23T07:35:01.464Z,102324.94
2018-05-23T07:37:29.400Z,102323.45
2018-05-23T07:39:57.746Z,102320.45
2018-05-23T07:42:26.057Z,102314.83
2018-05-23T07:44:53.922Z,102315.15
2018-05-23T07:47:22.402Z,102315.69
2018-05-23T07:49:50.474Z,102319.83
2018-05-23T07:52:18.505Z,102305.89
2018-05-23T07:54:46.991Z,102324.96
2018-05-23T07:57:17.251Z,102327.28
2018-05-23T07:59:49.314Z,102323.28
2018-05-23T08:02:18.189Z,102330.51
2018-05-23T08:04:45.896Z,102326.39
2018-05-23T08:07:13.780Z,102331.78
2018-05-23T08:09:42.313Z,102330.84
2018-05-23T08:12:14.481Z,102344.41
2018-05-23T08:14:42.328Z,102340.59
2018-05-23T08:17:10.857Z,102330.59
2018-05-23T08:19:39.028Z,102337.74
2018-05-23T08:22:06.899Z,102329.47
2018-05-23T08:24:35.271Z,102336.48
2018-05-23T08:27:03.196Z,102341.06
2018-05-23T08:29:31.521Z,102343.27
2018-05-23T08:32:00.280Z,102350.00
2018-05-23T08:34:28.148Z,102342.13
2018-05-23T08:36:56.213Z,102349.63
2018-05-23T08:39:24.423Z,102350.09
2018-05-23T08:41:52.565Z,102350.38
2018-05-23T08:44:20.942Z,102350.26
2018-05-23T08:46:49.628Z,102341.98
2018-05-23T08:49:17.428Z,102354.47
2018-05-23T08:51:45.739Z,102343.36
2018-05-23T08:54:14.170Z,102344.66
2018-05-23T08:56:42.097Z,102360.16
2018-05-23T08:59:10.330Z,102361.75
2018-05-23T09:01:38.670Z,102356.63
2018-05-23T09:04:06.716Z,102366.95
2018-05-23T09:06:34.725Z,102361.16
2018-05-23T09:09:03.027Z,102363.64
2018-05-23T09:11:31.054Z,102370.38
2018-05-23T09:13:58.953Z,102360.58
2018-05-23T09:16:27.126Z,102364.52
2018-05-23T09:18:55.480Z,102363.27
2018-05-23T09:21:24.043Z,102365.14
2018-05-23T09:23:53.157Z,102361.02
2018-05-23T09:26:21.174Z,102362.31
2018-05-23T09:28:49.362Z,102369.59
2018-05-23T09:31:18.214Z,102366.94
2018-05-23T09:33:46.029Z,102374.02
2018-05-23T09:36:13.820Z,102376.20
2018-05-23T09:38:42.807Z,102378.98
2018-05-23T09:41:10.739Z,102381.20
2018-05-23T09:43:38.549Z,102379.52
2018-05-23T09:46:07.135Z,102384.37
2018-05-23T09:48:35.202Z,102383.76
2018-05-23T09:51:02.989Z,102381.69
2018-05-23T09:53:32.661Z,102383.83
2018-05-23T09:56:00.958Z,102386.95
2018-05-23T09:58:29.016Z,102387.86
2018-05-23T10:00:58.625Z,102390.30
2018-05-23T10:03:27.003Z,102390.17
2018-05-23T10:05:54.870Z,102385.45
2018-05-23T10:08:23.238Z,102390.38
2018-05-23T10:10:51.346Z,102386.27
2018-05-23T10:13:19.333Z,102384.64
2018-05-23T10:15:47.772Z,102387.96
2018-05-23T10:18:15.801Z,102395.02
2018-05-23T10:20:43.605Z,102388.06
2018-05-23T10:23:12.081Z,102392.63
2018-05-23T10:25:40.155Z,102384.18
2018-05-23T10:28:08.025Z,102393.53
2018-05-23T10:30:36.300Z,102394.59
2018-05-23T10:33:05.122Z,102387.85
2018-05-23T10:35:33.124Z,102391.25
2018-05-23T10:38:01.876Z,102397.06
2018-05-23T10:40:30.227Z,102399.02
2018-05-23T10:42:58.161Z,102399.77
2018-05-23T10:45:27.181Z,102400.50
2018-05-23T10:47:55.357Z,102400.31
2018-05-23T10:50:24.710Z,102399.67
2018-05-23T10:52:53.648Z,102381.59
2018-05-23T10:55:21.767Z,102400.48
2018-05-23T10:57:49.719Z,102392.31
2018-05-23T11:00:18.822Z,102405.88
2018-05-23T11:02:47.111Z,102405.24
2018-05-23T11:05:15.231Z,102409.14
2018-05-23T11:07:43.806Z,102411.92
2018-05-23T11:10:11.650Z,102410.48
2018-05-23T11:12:39.588Z,102413.45
2018-05-23T11:15:08.114Z,102414.68
2018-05-23T11:17:36.307Z,102412.84
2018-05-23T11:20:04.660Z,102413.22
2018-05-23T11:22:33.471Z,102417.41
2018-05-23T11:25:01.576Z,102423.34
2018-05-23T11:27:29.487Z,102417.86
2018-05-23T11:29:57.919Z,102416.80
2018-05-23T11:32:25.788Z,102419.95
2018-05-23T11:34:53.727Z,102403.56
2018-05-23T11:37:22.445Z,102421.00
2018-05-23T11:39:50.527Z,102418.17
2018-05-23T11:42:18.281Z,102425.90
2018-05-23T11:44:46.622Z,102397.98
2018-05-23T11:47:14.696Z,102422.67
2018-05-23T11:49:42.717Z,102426.16
2018-05-23T11:52:11.532Z,102428.98
2018-05-23T11:54:39.932Z,102417.70
2018-05-23T11:57:08.412Z,102429.69
2018-05-23T11:59:37.064Z,102424.77
2018-05-23T12:02:05.586Z,102424.48
2018-05-23T12:04:33.652Z,102428.15
2018-05-23T12:07:02.131Z,102415.97
2018-05-23T12:09:29.995Z,102429.41
2018-05-23T12:11:58.272Z,102398.88
2018-05-23T12:14:26.548Z,102428.89
2018-05-23T12:16:54.518Z,102416.31
2018-05-23T12:19:22.590Z,102425.55
2018-05-23T12:21:50.738Z,102422.83
2018-05-23T12:24:18.639Z,102421.97
2018-05-23T12:26:46.815Z,102430.75
2018-05-23T12:29:15.309Z,102419.92
2018-05-23T12:31:43.613Z,102419.02
2018-05-23T12:34:11.541Z,102426.47
2018-05-23T12:36:40.236Z,102421.22
2018-05-23T12:39:08.042Z,102425.88
2018-05-23T12:41:36.131Z,102422.19
2018-05-23T12:44:04.993Z,102421.58
2018-05-23T12:46:32.907Z,102412.36
2018-05-23T12:49:00.776Z,102418.78
2018-05-23T12:51:29.563Z,102420.91
2018-05-23T12:53:57.430Z,102419.90
2018-05-23T12:56:25.404Z,102427.34
2018-05-23T12:58:54.493Z,102440.70
2018-05-23T13:01:22.362Z,102423.98
2018-05-23T13:03:50.227Z,102429.38
2018-05-23T13:06:19.129Z,102432.35
2018-05-23T13:08:47.089Z,102431.89
2018-05-23T13:11:15.576Z,102411.20
2018-05-23T13:13:44.268Z,102438.41
2018-05-23T13:16:12.197Z,102438.55
2018-05-23T13:18:40.086Z,102442.77
2018-05-23T13:21:08.683Z,102446.13
2018-05-23T13:23:36.463Z,102448.88
2018-05-23T13:26:04.338Z,102446.65
2018-05-23T13:28:32.848Z,102448.64
2018-05-23T13:31:00.692Z,102451.16
2018-05-23T13:33:28.616Z,102448.48
2018-05-23T13:35:57.057Z,102457.80
2018-05-23T13:38:24.859Z,102460.56
2018-05-23T13:40:52.710Z,102448.94
2018-05-23T13:43:21.106Z,102459.17
2018-05-23T13:45:49.076Z,102456.69
2018-05-23T13:48:17.351Z,102451.11
2018-05-23T13:50:45.961Z,102447.92
2018-05-23T13:53:14.294Z,102456.36
2018-05-23T13:55:42.172Z,102453.41
2018-05-23T13:58:10.585Z,102455.14
2018-05-23T14:00:38.518Z,102456.17
2018-05-23T14:03:06.640Z,102454.45
2018-05-23T14:05:35.593Z,102463.94
2018-05-23T14:08:03.461Z,102463.92
2018-05-23T14:10:31.731Z,102455.73
2018-05-23T14:13:00.000Z,102457.94
2018-05-23T14:15:27.978Z,102460.81
2018-05-23T14:17:56.254Z,102460.28
2018-05-23T14:20:24.508Z,102458.96
2018-05-23T14:22:52.399Z,102464.67
2018-05-23T14:25:20.669Z,102463.30
2018-05-23T14:27:48.847Z,102453.80
2018-05-23T14:30:16.627Z,102455.99
2018-05-23T14:32:44.788Z,102453.11
2018-05-23T14:35:13.192Z,102451.87
2018-05-23T14:37:41.032Z,102460.52
2018-05-23T14:40:09.178Z,102459.57
2018-05-23T14:42:37.689Z,102454.06
2018-05-23T14:45:05.583Z,102457.53
2018-05-23T14:47:33.922Z,102466.47
2018-05-23T14:50:02.232Z,102465.27
2018-05-23T14:52:30.116Z,102471.23
2018-05-23T14:54:58.172Z,102475.70
2018-05-23T14:57:26.421Z,102459.73
2018-05-23T14:59:54.767Z,102475.55
2018-05-23T15:02:23.491Z,102469.73
2018-05-23T15:04:51.863Z,102468.88
2018-05-23T15:07:20.234Z,102471.90
2018-05-23T15:09:48.486Z,102473.55
2018-05-23T15:12:16.766Z,102471.47
2018-05-23T15:14:44.862Z,102465.38
2018-05-23T15:17:12.933Z,102466.25
2018-05-23T15:19:41.438Z,102468.94
2018-05-23T15:22:09.847Z,102473.55
2018-05-23T15:24:37.820Z,102467.27
2018-05-23T15:27:06.117Z,102455.41
2018-05-23T15:29:34.825Z,102475.09
2018-05-23T15:32:03.171Z,102471.61
2018-05-23T15:34:31.581Z,102462.34
2018-05-23T15:36:59.448Z,102466.24
2018-05-23T15:39:27.858Z,102461.88
2018-05-23T15:41:56.309Z,102463.50
2018-05-23T15:44:24.181Z,102457.92
2018-05-23T15:46:52.355Z,102466.02
2018-05-23T15:49:20.692Z,102460.91
2018-05-23T15:51:48.723Z,102457.70
2018-05-23T15:54:16.683Z,102461.08
2018-05-23T15:56:45.043Z,102458.97
2018-05-23T15:59:13.268Z,102464.14
2018-05-23T16:01:41.182Z,102469.73
2018-05-23T16:04:09.769Z,102474.39
2018-05-23T16:06:37.939Z,102476.34
2018-05-23T16:09:06.080Z,102472.39
2018-05-23T16:11:34.505Z,102477.83
2018-05-23T16:14:02.302Z,102477.55
2018-05-23T16:16:30.629Z,102472.55
2018-05-23T16:18:59.118Z,102471.63
2018-05-23T16:21:27.006Z,102472.00
2018-05-23T16:23:54.890Z,102473.97
2018-05-23T16:26:23.534Z,102473.28
2018-05-23T16:28:51.301Z,102466.12
2018-05-23T16:31:19.370Z,102472.94
2018-05-23T16:33:47.508Z,102473.10
2018-05-23T16:36:15.388Z,102470.20
2018-05-23T16:38:43.589Z,102469.51
2018-05-23T16:41:11.969Z,102469.49
2018-05-23T16:43:39.759Z,102459.53
2018-05-23T16:46:07.718Z,102465.09
2018-05-23T16:48:36.301Z,102468.42
2018-05-23T16:51:04.147Z,102465.09
2018-05-23T16:53:32.292Z,102454.73
2018-05-23T16:56:00.599Z,102462.19
2018-05-23T16:58:28.545Z,102459.71
2018-05-23T17:00:56.742Z,102456.79
2018-05-23T17:03:24.852Z,102453.75
2018-05-23T17:05:52.904Z,102459.21
2018-05-23T17:08:20.895Z,102463.95
2018-05-23T17:10:49.123Z,102462.09
2018-05-23T17:13:17.061Z,102462.01
2018-05-23T17:15:45.370Z,102468.45
2018-05-23T17:18:13.748Z,102469.20
2018-05-23T17:20:41.584Z,102475.47
2018-05-23T17:23:09.834Z,102465.09
2018-05-23T17:25:38.266Z,102476.67
2018-05-23T17:28:06.253Z,102448.86
2018-05-23T17:30:34.410Z,102480.34
2018-05-23T17:33:03.049Z,102477.29
2018-05-23T17:35:31.188Z,102475.41
2018-05-23T17:37:59.362Z,102473.00
2018-05-23T17:40:27.830Z,102481.02
2018-05-23T17:42:56.351Z,102474.13
2018-05-23T17:45:24.648Z,102473.19
2018-05-23T17:47:53.059Z,102476.01
2018-05-23T17:50:21.666Z,102481.93
2018-05-23T17:52:49.921Z,102482.80
2018-05-23T17:55:18.370Z,102486.19
2018-05-23T17:57:46.298Z,102494.59
2018-05-23T18:00:14.366Z,102491.89
2018-05-23T18:02:42.634Z,102494.52
2018-05-23T18:05:10.533Z,102494.05
2018-05-23T18:07:38.666Z,102488.73
2018-05-23T18:10:06.839Z,102496.74
2018-05-23T18:12:35.312Z,102497.41
2018-05-23T18:15:03.655Z,102504.66
2018-05-23T18:17:31.962Z,102510.24
2018-05-23T18:19:59.832Z,102512.64
2018-05-23T18:22:28.137Z,102511.06
2018-05-23T18:24:56.670Z,102513.91
2018-05-23T18:27:24.654Z,102514.86
2018-05-23T18:29:52.788Z,102511.91
2018-05-23T18:32:21.105Z,102518.27
2018-05-23T18:34:49.488Z,102520.58
2018-05-23T18:37:17.879Z,102513.47
2018-05-23T18:39:46.069Z,102517.28
2018-05-23T18:42:14.053Z,102503.60
2018-05-23T18:44:42.377Z,102521.36
2018-05-23T18:47:10.760Z,102520.03
2018-05-23T18:49:38.906Z,102514.48
2018-05-23T18:52:07.620Z,102525.59
2018-05-23T18:54:36.160Z,102523.45
2018-05-23T18:57:04.443Z,102525.73
2018-05-23T18:59:32.723Z,102520.82
2018-05-23T19:02:01.321Z,102536.59
2018-05-23T19:04:29.179Z,102530.86
2018-05-23T19:06:57.688Z,102536.36
2018-05-23T19:09:26.064Z,102541.85
2018-05-23T19:11:54.452Z,102542.33
2018-05-23T19:14:22.925Z,102543.28
2018-05-23T19:16:51.768Z,102542.58
2018-05-23T19:19:19.679Z,102547.63
2018-05-23T19:21:47.950Z,102555.28
2018-05-23T19:24:16.542Z,102554.44
2018-05-23T19:26:44.707Z,102562.02
2018-05-23T19:29:12.798Z,102554.28
2018-05-23T19:31:41.267Z,102564.06
2018-05-23T19:34:09.416Z,102573.30
2018-05-23T19:36:37.732Z,102575.61
2018-05-23T19:39:06.491Z,102575.65
2018-05-23T19:41:34.434Z,102581.07
2018-05-23T19:44:02.906Z,102589.19
2018-05-23T19:46:32.658Z,102587.95
2018-05-23T19:49:00.831Z,102586.23
2018-05-23T19:51:29.495Z,102592.09
2018-05-23T19:53:58.008Z,102592.66
2018-05-23T19:56:25.963Z,102592.87
2018-05-23T19:58:53.955Z,102571.82
2018-05-23T20:01:22.852Z,102597.67
2018-05-23T20:03:50.903Z,102599.52
2018-05-23T20:06:19.162Z,102585.36
2018-05-23T20:08:47.600Z,102598.80
2018-05-23T20:11:15.812Z,102600.29
2018-05-23T20:13:44.059Z,102599.45
2018-05-23T20:16:12.483Z,102592.11
2018-05-23T20:18:40.540Z,102600.11
2018-05-23T20:21:08.623Z,102601.54
2018-05-23T20:23:36.913Z,102603.02
2018-05-23T20:26:04.828Z,102600.44
2018-05-23T20:28:32.949Z,102599.52
2018-05-23T20:31:01.329Z,102600.84
2018-05-23T20:33:29.392Z,102599.10
2018-05-23T20:35:57.669Z,102601.38
2018-05-23T20:38:26.177Z,102612.14
2018-05-23T20:40:54.227Z,102609.61
2018-05-23T20:43:22.664Z,102614.08
2018-05-23T20:45:51.083Z,102607.52
2018-05-23T20:48:19.353Z,102608.55
2018-05-23T20:50:47.731Z,102607.30
2018-05-23T20:53:16.471Z,102608.70
2018-05-23T20:55:44.627Z,102614.49
2018-05-23T20:58:12.930Z,102615.47
2018-05-23T21:00:41.319Z,102615.52
2018-05-23T21:03:09.319Z,102618.31
2018-05-23T21:05:39.608Z,102622.81
2018-05-23T21:08:08.223Z,102623.79
2018-05-23T21:10:36.186Z,102624.28
2018-05-23T21:13:04.285Z,102629.70
2018-05-23T21:15:32.738Z,102626.70
2018-05-23T21:18:00.609Z,102627.67
2018-05-23T21:20:28.676Z,102636.63
2018-05-23T21:22:56.959Z,102631.77
2018-05-23T21:25:25.234Z,102633.22
2018-05-23T21:27:53.532Z,102638.67
2018-05-23T21:30:21.902Z,102636.96
2018-05-23T21:32:50.852Z,102639.70
2018-05-23T21:35:18.637Z,102630.87
2018-05-23T21:37:46.879Z,102631.80
2018-05-23T21:40:14.996Z,102636.25
2018-05-23T21:42:42.851Z,102638.55
2018-05-23T21:45:11.205Z,102634.98
2018-05-23T21:47:39.137Z,102644.78
2018-05-23T21:50:07.048Z,102639.91
2018-05-23T21:52:35.443Z,102643.92
2018-05-23T21:55:03.530Z,102642.62
2018-05-23T21:57:31.380Z,102637.78
2018-05-23T21:59:59.742Z,102639.63
2018-05-23T22:02:27.731Z,102643.25
2018-05-23T22:04:55.457Z,102648.22
2018-05-23T22:07:23.872Z,102647.36
2018-05-23T22:09:52.079Z,102650.56
2018-05-23T22:12:19.912Z,102651.48
2018-05-23T22:14:48.510Z,102654.57
2018-05-23T22:17:16.670Z,102651.42
2018-05-23T22:19:44.512Z,102652.28
2018-05-23T22:22:12.820Z,102644.81
2018-05-23T22:24:40.940Z,102654.54
2018-05-23T22:27:08.793Z,102660.80
2018-05-23T22:29:36.944Z,102656.44
2018-05-23T22:32:04.973Z,102659.55
2018-05-23T22:34:32.874Z,102659.58
2018-05-23T22:37:00.979Z,102666.28
2018-05-23T22:39:29.228Z,102660.56
2018-05-23T22:41:57.179Z,102660.11
2018-05-23T22:44:25.844Z,102666.84
2018-05-23T22:46:53.833Z,102662.44
2018-05-23T22:49:21.711Z,102661.16
2018-05-23T22:51:50.181Z,102660.32
2018-05-23T22:54:18.291Z,102658.59
2018-05-23T22:56:46.033Z,102663.52
2018-05-23T22:59:14.394Z,102658.21
2018-05-23T23:01:42.665Z,102654.75
2018-05-23T23:04:10.644Z,102650.81
2018-05-23T23:06:39.118Z,102663.26
2018-05-23T23:09:07.185Z,102667.73
2018-05-23T23:11:34.953Z,102672.21
2018-05-23T23:14:03.337Z,102668.72
2018-05-23T23:16:31.248Z,102663.87
2018-05-23T23:18:59.235Z,102668.35
2018-05-23T23:21:27.774Z,102667.09
2018-05-23T23:23:56.125Z,102667.95
2018-05-23T23:26:23.986Z,102673.73
2018-05-23T23:28:52.068Z,102679.09
2018-05-23T23:31:19.945Z,102676.91
2018-05-23T23:33:47.783Z,102684.94
2018-05-23T23:36:16.174Z,102689.42
2018-05-23T23:38:44.348Z,102691.22
2018-05-23T23:41:12.214Z,102691.25
2018-05-23T23:43:40.415Z,102696.60
2018-05-23T23:46:08.803Z,102699.70
2018-05-23T23:48:36.635Z,102699.27
2018-05-23T23:51:04.760Z,102706.40
2018-05-23T23:53:32.782Z,102707.72
2018-05-23T23:56:00.648Z,102701.92
2018-05-23T23:58:28.915Z,102704.14
